sensor_id;sensor_type;location;lat;lon;timestamp;pressure;altitude;pressure_sealevel;temperature;humidity
18500;BME280;9379;52.134;11.576;2023-04-01T00:02:25;99014.66;;;12.52;100.00
18500;BME280;9379;52.134;11.576;2023-04-01T00:04:52;99015.06;;;12.71;99.01
18500;BME280;9379;52.134;11.576;2023-04-01T00:07:19;99013.44;;;12.04;100.00
18500;BME280;9379;52.134;11.576;2023-04-01T00:09:47;99022.19;;;12.64;100.00
18500;BME280;9379;52.134;11.576;2023-04-01T00:12:14;99012.75;;;12.82;98.35
18500;BME280;9379;52.134;11.576;2023-04-01T00:14:41;99012.22;;;12.72;99.03
18500;BME280;9379;52.134;11.576;2023-04-01T00:17:08;99023.47;;;12.38;100.00
18500;BME280;9379;52.134;11.576;2023-04-01T00:19:36;99011.28;;;12.14;100.00
18500;BME280;9379;52.134;11.576;2023-04-01T00:22:03;99025.22;;;12.46;100.00
18500;BME280;9379;52.134;11.576;2023-04-01T00:24:29;99007.03;;;12.49;100.00
18500;BME280;9379;52.134;11.576;2023-04-01T00:26:58;99026.06;;;12.46;100.00
18500;BME280;9379;52.134;11.576;2023-04-01T00:29:29;99016.06;;;12.19;100.00
18500;BME280;9379;52.134;11.576;2023-04-01T00:31:56;99016.50;;;12.37;100.00
18500;BME280;9379;52.134;11.576;2023-04-01T00:34:23;99013.81;;;12.67;100.00
18500;BME280;9379;52.134;11.576;2023-04-01T00:36:51;99011.09;;;12.45;100.00
18500;BME280;9379;52.134;11.576;2023-04-01T00:39:19;99018.03;;;12.97;99.58
18500;BME280;9379;52.134;11.576;2023-04-01T00:41:47;99013.44;;;12.91;99.09
18500;BME280;9379;52.134;11.576;2023-04-01T00:44:18;99019.88;;;12.97;99.90
18500;BME280;9379;52.134;11.576;2023-04-01T00:46:46;99020.72;;;12.97;99.04
18500;BME280;9379;52.134;11.576;2023-04-01T00:49:14;99015.41;;;12.82;100.00
18500;BME280;9379;52.134;11.576;2023-04-01T00:51:42;99016.88;;;12.34;100.00
18500;BME280;9379;52.134;11.576;2023-04-01T00:54:13;99024.03;;;12.63;100.00
18500;BME280;9379;52.134;11.576;2023-04-01T00:56:45;99020.66;;;12.40;100.00
18500;BME280;9379;52.134;11.576;2023-04-01T00:59:19;99025.22;;;12.46;100.00
18500;BME280;9379;52.134;11.576;2023-04-01T01:01:47;99029.16;;;12.65;100.00
18500;BME280;9379;52.134;11.576;2023-04-01T01:04:23;99029.84;;;12.73;100.00
18500;BME280;9379;52.134;11.576;2023-04-01T01:06:57;99016.75;;;12.57;100.00
18500;BME280;9379;52.134;11.576;2023-04-01T01:09:36;99026.06;;;12.46;100.00
18500;BME280;9379;52.134;11.576;2023-04-01T01:12:11;99036.25;;;12.43;100.00
18500;BME280;9379;52.134;11.576;2023-04-01T01:14:49;99023.41;;;12.82;100.00
18500;BME280;9379;52.134;11.576;2023-04-01T01:17:26;99025.91;;;12.69;100.00
18500;BME280;9379;52.134;11.576;2023-04-01T01:20:17;99030.47;;;12.54;100.00
18500;BME280;9379;52.134;11.576;2023-04-01T01:22:52;99026.53;;;12.86;100.00
18500;BME280;9379;52.134;11.576;2023-04-01T01:25:32;99025.91;;;12.69;100.00
18500;BME280;9379;52.134;11.576;2023-04-01T01:28:22;99018.66;;;12.99;100.00
18500;BME280;9379;52.134;11.576;2023-04-01T01:30:57;99021.84;;;12.73;100.00
18500;BME280;9379;52.134;11.576;2023-04-01T01:33:36;99019.31;;;12.65;100.00
18500;BME280;9379;52.134;11.576;2023-04-01T01:36:09;99010.88;;;12.47;100.00
18500;BME280;9379;52.134;11.576;2023-04-01T01:38:39;99016.50;;;12.37;100.00
18500;BME280;9379;52.134;11.576;2023-04-01T01:41:08;99021.94;;;12.29;100.00
18500;BME280;9379;52.134;11.576;2023-04-01T01:43:39;99023.75;;;12.58;100.00
18500;BME280;9379;52.134;11.576;2023-04-01T01:46:09;99030.28;;;12.55;100.00
18500;BME280;9379;52.134;11.576;2023-04-01T01:48:38;99018.53;;;12.86;100.00
18500;BME280;9379;52.134;11.576;2023-04-01T01:51:08;99013.84;;;12.37;100.00
18500;BME280;9379;52.134;11.576;2023-04-01T01:53:35;99033.22;;;12.46;100.00
18500;BME280;9379;52.134;11.576;2023-04-01T01:56:03;99025.19;;;12.61;100.00
18500;BME280;9379;52.134;11.576;2023-04-01T01:58:32;99029.53;;;12.47;100.00
18500;BME280;9379;52.134;11.576;2023-04-01T02:01:03;99036.53;;;12.63;100.00
18500;BME280;9379;52.134;11.576;2023-04-01T02:03:35;99028.88;;;12.96;100.00
18500;BME280;9379;52.134;11.576;2023-04-01T02:06:04;99022.13;;;12.78;100.00
18500;BME280;9379;52.134;11.576;2023-04-01T02:08:35;99016.22;;;12.83;100.00
18500;BME280;9379;52.134;11.576;2023-04-01T02:11:07;98998.78;;;12.80;100.00
18500;BME280;9379;52.134;11.576;2023-04-01T02:13:37;99022.38;;;12.83;100.00
18500;BME280;9379;52.134;11.576;2023-04-01T02:16:13;99026.97;;;12.53;100.00
18500;BME280;9379;52.134;11.576;2023-04-01T02:18:44;99021.31;;;12.78;100.00
18500;BME280;9379;52.134;11.576;2023-04-01T02:21:12;99013.69;;;12.75;100.00
18500;BME280;9379;52.134;11.576;2023-04-01T02:23:42;99002.13;;;12.68;100.00
18500;BME280;9379;52.134;11.576;2023-04-01T02:26:09;99022.03;;;12.87;100.00
18500;BME280;9379;52.134;11.576;2023-04-01T02:28:38;99018.41;;;12.58;100.00
18500;BME280;9379;52.134;11.576;2023-04-01T02:31:08;99027.25;;;12.44;100.00
18500;BME280;9379;52.134;11.576;2023-04-01T02:33:37;99020.28;;;12.13;100.00
18500;BME280;9379;52.134;11.576;2023-04-01T02:36:05;99014.03;;;12.36;100.00
18500;BME280;9379;52.134;11.576;2023-04-01T02:38:35;99032.13;;;12.11;100.00
18500;BME280;9379;52.134;11.576;2023-04-01T02:41:04;99026.41;;;12.58;100.00
18500;BME280;9379;52.134;11.576;2023-04-01T02:43:31;99032.88;;;12.34;100.00
18500;BME280;9379;52.134;11.576;2023-04-01T02:45:59;99032.31;;;12.24;100.00
18500;BME280;9379;52.134;11.576;2023-04-01T02:48:27;99028.09;;;12.30;100.00
18500;BME280;9379;52.134;11.576;2023-04-01T02:50:53;99028.81;;;12.38;100.00
18500;BME280;9379;52.134;11.576;2023-04-01T02:53:21;99030.66;;;12.52;100.00
18500;BME280;9379;52.134;11.576;2023-04-01T02:55:48;99033.38;;;12.59;100.00
18500;BME280;9379;52.134;11.576;2023-04-01T02:58:20;99035.63;;;12.41;100.00
18500;BME280;9379;52.134;11.576;2023-04-01T03:00:47;99040.50;;;12.22;100.00
18500;BME280;9379;52.134;11.576;2023-04-01T03:03:14;99038.28;;;12.41;100.00
18500;BME280;9379;52.134;11.576;2023-04-01T03:05:41;99029.66;;;12.09;100.00
18500;BME280;9379;52.134;11.576;2023-04-01T03:08:08;99046.72;;;12.15;100.00
18500;BME280;9379;52.134;11.576;2023-04-01T03:10:35;99041.47;;;11.92;100.00
18500;BME280;9379;52.134;11.576;2023-04-01T03:13:02;99048.78;;;12.27;100.00
18500;BME280;9379;52.134;11.576;2023-04-01T03:15:30;99043.06;;;12.31;100.00
18500;BME280;9379;52.134;11.576;2023-04-01T03:17:57;99041.50;;;12.36;100.00
18500;BME280;9379;52.134;11.576;2023-04-01T03:20:24;99039.47;;;12.38;100.00
18500;BME280;9379;52.134;11.576;2023-04-01T03:22:51;99046.47;;;12.39;100.00
18500;BME280;9379;52.134;11.576;2023-04-01T03:25:18;99050.41;;;12.14;100.00
18500;BME280;9379;52.134;11.576;2023-04-01T03:27:44;99044.63;;;12.25;100.00
18500;BME280;9379;52.134;11.576;2023-04-01T03:30:11;99050.13;;;12.09;100.00
18500;BME280;9379;52.134;11.576;2023-04-01T03:32:40;99047.84;;;12.06;100.00
18500;BME280;9379;52.134;11.576;2023-04-01T03:35:07;99049.13;;;12.24;100.00
18500;BME280;9379;52.134;11.576;2023-04-01T03:37:35;99042.03;;;12.02;100.00
18500;BME280;9379;52.134;11.576;2023-04-01T03:40:03;99057.75;;;12.12;100.00
18500;BME280;9379;52.134;11.576;2023-04-01T03:42:30;99054.25;;;12.26;100.00
18500;BME280;9379;52.134;11.576;2023-04-01T03:44:57;99048.81;;;12.49;100.00
18500;BME280;9379;52.134;11.576;2023-04-01T03:47:24;99047.94;;;12.12;100.00
18500;BME280;9379;52.134;11.576;2023-04-01T03:49:53;99052.34;;;12.05;100.00
18500;BME280;9379;52.134;11.576;2023-04-01T03:52:19;99050.03;;;12.02;100.00
18500;BME280;9379;52.134;11.576;2023-04-01T03:54:46;99059.22;;;12.14;100.00
18500;BME280;9379;52.134;11.576;2023-04-01T03:57:13;99050.50;;;12.20;100.00
18500;BME280;9379;52.134;11.576;2023-04-01T03:59:40;99043.72;;;12.33;100.00
18500;BME280;9379;52.134;11.576;2023-04-01T04:02:07;99059.13;;;12.37;100.00
18500;BME280;9379;52.134;11.576;2023-04-01T04:04:34;99037.94;;;12.29;100.00
18500;BME280;9379;52.134;11.576;2023-04-01T04:07:02;99044.06;;;12.15;100.00
18500;BME280;9379;52.134;11.576;2023-04-01T04:09:30;99057.13;;;12.10;100.00
18500;BME280;9379;52.134;11.576;2023-04-01T04:11:56;99042.91;;;12.17;100.00
18500;BME280;9379;52.134;11.576;2023-04-01T04:14:23;99042.22;;;12.15;100.00
18500;BME280;9379;52.134;11.576;2023-04-01T04:16:50;99062.19;;;12.19;100.00
18500;BME280;9379;52.134;11.576;2023-04-01T04:19:17;99057.41;;;12.30;100.00
18500;BME280;9379;52.134;11.576;2023-04-01T04:21:44;99063.72;;;12.14;100.00
18500;BME280;9379;52.134;11.576;2023-04-01T04:24:12;99065.09;;;12.24;100.00
18500;BME280;9379;52.134;11.576;2023-04-01T04:26:39;99058.22;;;12.30;100.00
18500;BME280;9379;52.134;11.576;2023-04-01T04:29:06;99054.94;;;11.76;100.00
18500;BME280;9379;52.134;11.576;2023-04-01T04:31:35;99069.50;;;11.65;100.00
18500;BME280;9379;52.134;11.576;2023-04-01T04:34:02;99078.44;;;11.72;100.00
18500;BME280;9379;52.134;11.576;2023-04-01T04:36:29;99081.59;;;11.90;100.00
18500;BME280;9379;52.134;11.576;2023-04-01T04:38:56;99074.88;;;11.80;100.00
18500;BME280;9379;52.134;11.576;2023-04-01T04:41:24;99087.22;;;11.95;100.00
18500;BME280;9379;52.134;11.576;2023-04-01T04:43:52;99081.34;;;12.15;100.00
18500;BME280;9379;52.134;11.576;2023-04-01T04:46:20;99085.03;;;12.14;100.00
18500;BME280;9379;52.134;11.576;2023-04-01T04:48:47;99087.66;;;11.84;100.00
18500;BME280;9379;52.134;11.576;2023-04-01T04:51:14;99084.81;;;11.86;100.00
18500;BME280;9379;52.134;11.576;2023-04-01T04:53:42;99086.09;;;11.90;100.00
18500;BME280;9379;52.134;11.576;2023-04-01T04:56:09;99088.81;;;12.05;100.00
18500;BME280;9379;52.134;11.576;2023-04-01T04:58:37;99095.72;;;11.91;100.00
18500;BME280;9379;52.134;11.576;2023-04-01T05:01:09;99090.25;;;11.92;100.00
18500;BME280;9379;52.134;11.576;2023-04-01T05:03:36;99088.97;;;12.03;100.00
18500;BME280;9379;52.134;11.576;2023-04-01T05:06:03;99093.66;;;12.01;100.00
18500;BME280;9379;52.134;11.576;2023-04-01T05:08:30;99087.47;;;11.86;100.00
18500;BME280;9379;52.134;11.576;2023-04-01T05:10:58;99090.53;;;11.97;100.00
18500;BME280;9379;52.134;11.576;2023-04-01T05:13:25;99091.84;;;12.16;100.00
18500;BME280;9379;52.134;11.576;2023-04-01T05:15:53;99095.03;;;12.26;100.00
18500;BME280;9379;52.134;11.576;2023-04-01T05:18:20;99091.91;;;12.08;100.00
18500;BME280;9379;52.134;11.576;2023-04-01T05:20:48;99103.94;;;12.04;100.00
18500;BME280;9379;52.134;11.576;2023-04-01T05:23:15;99101.63;;;12.01;100.00
18500;BME280;9379;52.134;11.576;2023-04-01T05:25:42;99106.44;;;12.06;100.00
18500;BME280;9379;52.134;11.576;2023-04-01T05:28:10;99110.31;;;12.18;100.00
18500;BME280;9379;52.134;11.576;2023-04-01T05:30:39;99107.72;;;12.69;100.00
18500;BME280;9379;52.134;11.576;2023-04-01T05:33:08;99097.88;;;12.25;100.00
18500;BME280;9379;52.134;11.576;2023-04-01T05:35:35;99110.19;;;12.26;100.00
18500;BME280;9379;52.134;11.576;2023-04-01T05:38:02;99110.75;;;12.36;100.00
18500;BME280;9379;52.134;11.576;2023-04-01T05:40:29;99112.03;;;12.25;100.00
18500;BME280;9379;52.134;11.576;2023-04-01T05:42:56;99112.84;;;11.96;100.00
18500;BME280;9379;52.134;11.576;2023-04-01T05:45:23;99115.44;;;12.19;100.00
18500;BME280;9379;52.134;11.576;2023-04-01T05:47:50;99107.44;;;12.34;100.00
18500;BME280;9379;52.134;11.576;2023-04-01T05:50:19;99099.91;;;12.23;100.00
18500;BME280;9379;52.134;11.576;2023-04-01T05:52:46;99110.88;;;12.43;100.00
18500;BME280;9379;52.134;11.576;2023-04-01T05:55:12;99119.03;;;12.41;100.00
18500;BME280;9379;52.134;11.576;2023-04-01T05:57:39;99119.22;;;12.40;100.00
18500;BME280;9379;52.134;11.576;2023-04-01T06:00:07;99118.28;;;12.33;100.00
18500;BME280;9379;52.134;11.576;2023-04-01T06:02:34;99123.72;;;12.54;100.00
18500;BME280;9379;52.134;11.576;2023-04-01T06:05:10;99119.75;;;12.35;100.00
18500;BME280;9379;52.134;11.576;2023-04-01T06:07:39;99130.03;;;12.09;100.00
18500;BME280;9379;52.134;11.576;2023-04-01T06:10:15;99119.50;;;12.45;100.00
18500;BME280;9379;52.134;11.576;2023-04-01T06:12:54;99126.66;;;12.44;100.00
18500;BME280;9379;52.134;11.576;2023-04-01T06:15:35;99130.06;;;12.68;100.00
18500;BME280;9379;52.134;11.576;2023-04-01T06:18:41;99134.41;;;13.05;100.00
18500;BME280;9379;52.134;11.576;2023-04-01T06:21:33;99134.09;;;12.78;100.00
18500;BME280;9379;52.134;11.576;2023-04-01T06:24:19;99128.09;;;13.42;100.00
18500;BME280;9379;52.134;11.576;2023-04-01T06:26:52;99133.28;;;12.78;100.00
18500;BME280;9379;52.134;11.576;2023-04-01T06:29:44;99134.91;;;12.49;100.00
18500;BME280;9379;52.134;11.576;2023-04-01T06:32:28;99138.03;;;12.82;100.00
18500;BME280;9379;52.134;11.576;2023-04-01T06:35:14;99135.59;;;12.51;100.00
18500;BME280;9379;52.134;11.576;2023-04-01T06:37:57;99145.03;;;12.83;100.00
18500;BME280;9379;52.134;11.576;2023-04-01T06:43:36;99148.09;;;12.51;100.00
18500;BME280;9379;52.134;11.576;2023-04-01T06:46:11;99150.81;;;12.43;100.00
18500;BME280;9379;52.134;11.576;2023-04-01T06:48:57;99141.69;;;12.96;100.00
18500;BME280;9379;52.134;11.576;2023-04-01T06:51:39;99153.13;;;12.75;100.00
18500;BME280;9379;52.134;11.576;2023-04-01T06:54:12;99152.25;;;13.04;100.00
18500;BME280;9379;52.134;11.576;2023-04-01T06:56:43;99149.63;;;12.60;100.00
18500;BME280;9379;52.134;11.576;2023-04-01T06:59:16;99161.44;;;13.17;100.00
18500;BME280;9379;52.134;11.576;2023-04-01T07:01:46;99164.78;;;13.04;100.00
18500;BME280;9379;52.134;11.576;2023-04-01T07:04:20;99160.19;;;12.83;100.00
18500;BME280;9379;52.134;11.576;2023-04-01T07:06:50;99164.59;;;13.05;100.00
18500;BME280;9379;52.134;11.576;2023-04-01T07:09:20;99153.09;;;13.20;100.00
18500;BME280;9379;52.134;11.576;2023-04-01T07:11:50;99164.44;;;12.77;100.00
18500;BME280;9379;52.134;11.576;2023-04-01T07:14:25;99164.94;;;13.17;100.00
18500;BME280;9379;52.134;11.576;2023-04-01T07:16:59;99164.47;;;13.13;100.00
18500;BME280;9379;52.134;11.576;2023-04-01T07:19:32;99164.59;;;13.05;100.00
18500;BME280;9379;52.134;11.576;2023-04-01T07:22:04;99169.84;;;12.99;100.00
18500;BME280;9379;52.134;11.576;2023-04-01T07:24:34;99170.38;;;13.09;100.00
18500;BME280;9379;52.134;11.576;2023-04-01T07:27:05;99174.59;;;13.03;100.00
18500;BME280;9379;52.134;11.576;2023-04-01T07:29:36;99169.81;;;13.13;100.00
18500;BME280;9379;52.134;11.576;2023-04-01T07:32:16;99174.69;;;12.95;100.00
18500;BME280;9379;52.134;11.576;2023-04-01T07:34:58;99179.41;;;12.93;100.00
18500;BME280;9379;52.134;11.576;2023-04-01T07:37:31;99166.97;;;13.15;100.00
18500;BME280;9379;52.134;11.576;2023-04-01T07:40:11;99170.59;;;12.78;100.00
18500;BME280;9379;52.134;11.576;2023-04-01T07:42:51;99182.66;;;13.39;100.00
18500;BME280;9379;52.134;11.576;2023-04-01T07:45:30;99182.28;;;13.42;100.00
18500;BME280;9379;52.134;11.576;2023-04-01T07:48:09;99187.38;;;13.37;100.00
18500;BME280;9379;52.134;11.576;2023-04-01T07:50:41;99191.16;;;13.28;100.00
18500;BME280;9379;52.134;11.576;2023-04-01T07:53:18;99192.91;;;12.92;100.00
18500;BME280;9379;52.134;11.576;2023-04-01T07:55:51;99197.06;;;13.24;100.00
18500;BME280;9379;52.134;11.576;2023-04-01T07:58:28;99195.91;;;13.48;100.00
18500;BME280;9379;52.134;11.576;2023-04-01T08:01:09;99193.88;;;13.50;100.00
18500;BME280;9379;52.134;11.576;2023-04-01T08:03:47;99196.69;;;12.82;100.00
18500;BME280;9379;52.134;11.576;2023-04-01T08:06:20;99196.91;;;13.47;100.00
18500;BME280;9379;52.134;11.576;2023-04-01T08:08:58;99208.13;;;13.42;100.00
18500;BME280;9379;52.134;11.576;2023-04-01T08:11:37;99201.41;;;13.82;100.00
18500;BME280;9379;52.134;11.576;2023-04-01T08:14:13;99211.50;;;14.08;100.00
18500;BME280;9379;52.134;11.576;2023-04-01T08:16:48;99216.78;;;13.80;100.00
18500;BME280;9379;52.134;11.576;2023-04-01T08:19:22;99209.66;;;13.87;100.00
18500;BME280;9379;52.134;11.576;2023-04-01T08:21:58;99214.09;;;13.59;100.00
18500;BME280;9379;52.134;11.576;2023-04-01T08:24:34;99219.38;;;13.37;100.00
18500;BME280;9379;52.134;11.576;2023-04-01T08:27:06;99219.97;;;13.54;100.00
18500;BME280;9379;52.134;11.576;2023-04-01T08:29:38;99226.94;;;13.70;100.00
18500;BME280;9379;52.134;11.576;2023-04-01T08:32:12;99209.72;;;13.94;100.00
18500;BME280;9379;52.134;11.576;2023-04-01T08:34:46;99214.25;;;13.72;99.86
18500;BME280;9379;52.134;11.576;2023-04-01T08:37:17;99223.78;;;13.81;99.57
18500;BME280;9379;52.134;11.576;2023-04-01T08:39:46;99221.16;;;13.88;100.00
18500;BME280;9379;52.134;11.576;2023-04-01T08:42:35;99223.69;;;13.89;100.00
18500;BME280;9379;52.134;11.576;2023-04-01T08:45:20;99219.81;;;14.20;98.81
18500;BME280;9379;52.134;11.576;2023-04-01T08:48:16;99229.47;;;14.64;97.23
18500;BME280;9379;52.134;11.576;2023-04-01T08:51:18;99219.59;;;14.15;98.14
18500;BME280;9379;52.134;11.576;2023-04-01T08:53:58;99223.56;;;14.47;95.76
18500;BME280;9379;52.134;11.576;2023-04-01T08:56:33;99229.66;;;14.41;97.31
18500;BME280;9379;52.134;11.576;2023-04-01T08:59:26;99220.81;;;14.40;97.29
18500;BME280;9379;52.134;11.576;2023-04-01T09:02:23;99223.19;;;14.28;97.75
18500;BME280;9379;52.134;11.576;2023-04-01T09:05:18;99231.66;;;14.53;93.90
18500;BME280;9379;52.134;11.576;2023-04-01T09:07:56;99232.56;;;14.18;96.41
18500;BME280;9379;52.134;11.576;2023-04-01T09:10:44;99227.53;;;14.29;97.60
18500;BME280;9379;52.134;11.576;2023-04-01T09:16:34;99226.91;;;14.49;94.87
18500;BME280;9379;52.134;11.576;2023-04-01T09:19:19;99233.13;;;14.91;93.27
18500;BME280;9379;52.134;11.576;2023-04-01T09:22:07;99221.16;;;15.21;91.87
18500;BME280;9379;52.134;11.576;2023-04-01T09:24:47;99226.88;;;15.11;91.66
18500;BME280;9379;52.134;11.576;2023-04-01T09:27:26;99229.00;;;14.88;91.40
18500;BME280;9379;52.134;11.576;2023-04-01T09:30:30;99229.09;;;15.42;88.19
18500;BME280;9379;52.134;11.576;2023-04-01T09:36:07;99225.81;;;15.06;89.19
18500;BME280;9379;52.134;11.576;2023-04-01T09:38:53;99239.59;;;14.47;90.91
18500;BME280;9379;52.134;11.576;2023-04-01T09:41:29;99230.91;;;14.94;89.91
18500;BME280;9379;52.134;11.576;2023-04-01T09:44:01;99240.94;;;14.92;89.57
18500;BME280;9379;52.134;11.576;2023-04-01T09:46:36;99230.50;;;14.97;88.55
18500;BME280;9379;52.134;11.576;2023-04-01T09:49:33;99231.88;;;15.21;90.55
18500;BME280;9379;52.134;11.576;2023-04-01T09:52:17;99239.22;;;15.54;86.55
18500;BME280;9379;52.134;11.576;2023-04-01T09:55:12;99243.09;;;15.44;88.50
18500;BME280;9379;52.134;11.576;2023-04-01T09:58:22;99241.13;;;15.25;88.80
18500;BME280;9379;52.134;11.576;2023-04-01T10:04:17;99245.84;;;14.82;90.66
18500;BME280;9379;52.134;11.576;2023-04-01T10:19:37;99249.88;;;15.47;86.29
18500;BME280;9379;52.134;11.576;2023-04-01T10:22:25;99255.78;;;15.29;88.07
18500;BME280;9379;52.134;11.576;2023-04-01T10:25:32;99255.38;;;15.32;86.70
18500;BME280;9379;52.134;11.576;2023-04-01T10:28:31;99264.66;;;15.84;86.57
18500;BME280;9379;52.134;11.576;2023-04-01T10:34:46;99262.03;;;15.43;83.98
18500;BME280;9379;52.134;11.576;2023-04-01T10:37:44;99260.38;;;15.42;85.54
18500;BME280;9379;52.134;11.576;2023-04-01T10:40:36;99259.72;;;14.99;84.40
18500;BME280;9379;52.134;11.576;2023-04-01T10:43:36;99257.41;;;15.71;85.59
18500;BME280;9379;52.134;11.576;2023-04-01T10:46:27;99248.34;;;15.25;84.40
18500;BME280;9379;52.134;11.576;2023-04-01T10:52:34;99252.56;;;15.47;85.30
18500;BME280;9379;52.134;11.576;2023-04-01T10:55:36;99259.72;;;15.81;84.10
18500;BME280;9379;52.134;11.576;2023-04-01T11:01:43;99260.72;;;15.73;83.61
18500;BME280;9379;52.134;11.576;2023-04-01T11:07:40;99260.41;;;16.03;83.00
18500;BME280;9379;52.134;11.576;2023-04-01T11:19:43;99271.00;;;15.63;84.48
18500;BME280;9379;52.134;11.576;2023-04-01T11:22:28;99271.13;;;16.10;81.58
18500;BME280;9379;52.134;11.576;2023-04-01T11:25:24;99272.94;;;15.89;81.13
18500;BME280;9379;52.134;11.576;2023-04-01T11:28:16;99260.22;;;16.31;81.26
18500;BME280;9379;52.134;11.576;2023-04-01T11:30:59;99277.31;;;16.17;81.18
18500;BME280;9379;52.134;11.576;2023-04-01T11:33:36;99270.50;;;16.01;80.10
18500;BME280;9379;52.134;11.576;2023-04-01T11:36:22;99278.75;;;16.13;79.83
18500;BME280;9379;52.134;11.576;2023-04-01T11:39:15;99282.47;;;16.31;80.95
18500;BME280;9379;52.134;11.576;2023-04-01T11:41:56;99281.56;;;15.85;82.21
18500;BME280;9379;52.134;11.576;2023-04-01T11:44:29;99281.47;;;16.26;82.60
18500;BME280;9379;52.134;11.576;2023-04-01T11:49:51;99287.00;;;16.11;80.70
18500;BME280;9379;52.134;11.576;2023-04-01T11:52:33;99301.28;;;15.64;86.73
18500;BME280;9379;52.134;11.576;2023-04-01T11:55:14;99296.88;;;15.56;89.83
18500;BME280;9379;52.134;11.576;2023-04-01T11:58:14;99288.53;;;15.31;88.58
18500;BME280;9379;52.134;11.576;2023-04-01T12:00:57;99288.16;;;15.75;87.15
18500;BME280;9379;52.134;11.576;2023-04-01T12:06:30;99306.66;;;15.70;88.91
18500;BME280;9379;52.134;11.576;2023-04-01T12:09:05;99305.06;;;15.41;86.89
18500;BME280;9379;52.134;11.576;2023-04-01T12:11:42;99303.81;;;15.85;86.37
18500;BME280;9379;52.134;11.576;2023-04-01T12:14:17;99304.69;;;15.92;84.28
18500;BME280;9379;52.134;11.576;2023-04-01T12:16:55;99312.91;;;15.91;85.67
18500;BME280;9379;52.134;11.576;2023-04-01T12:19:32;99320.09;;;15.08;85.56
18500;BME280;9379;52.134;11.576;2023-04-01T12:22:17;99309.03;;;15.52;85.56
18500;BME280;9379;52.134;11.576;2023-04-01T12:24:56;99318.28;;;14.87;86.09
18500;BME280;9379;52.134;11.576;2023-04-01T12:27:41;99321.75;;;15.43;85.39
18500;BME280;9379;52.134;11.576;2023-04-01T12:30:38;99319.75;;;15.52;84.76
18500;BME280;9379;52.134;11.576;2023-04-01T12:33:23;99324.88;;;15.88;82.08
18500;BME280;9379;52.134;11.576;2023-04-01T12:36:02;99332.69;;;15.48;82.06
18500;BME280;9379;52.134;11.576;2023-04-01T12:38:42;99325.75;;;15.26;82.65
18500;BME280;9379;52.134;11.576;2023-04-01T12:41:17;99328.13;;;15.77;81.22
18500;BME280;9379;52.134;11.576;2023-04-01T12:44:09;99323.50;;;16.12;78.86
18500;BME280;9379;52.134;11.576;2023-04-01T12:46:59;99332.56;;;16.18;77.50
18500;BME280;9379;52.134;11.576;2023-04-01T12:49:55;99333.41;;;16.12;78.24
18500;BME280;9379;52.134;11.576;2023-04-01T12:52:35;99335.44;;;16.03;78.32
18500;BME280;9379;52.134;11.576;2023-04-01T12:55:35;99335.69;;;16.21;76.25
18500;BME280;9379;52.134;11.576;2023-04-01T12:58:30;99352.34;;;15.62;76.23
18500;BME280;9379;52.134;11.576;2023-04-01T13:01:21;99340.16;;;16.01;77.60
18500;BME280;9379;52.134;11.576;2023-04-01T13:04:21;99345.16;;;15.63;75.47
18500;BME280;9379;52.134;11.576;2023-04-01T13:07:02;99342.16;;;15.86;76.87
18500;BME280;9379;52.134;11.576;2023-04-01T13:09:42;99350.84;;;15.88;77.86
18500;BME280;9379;52.134;11.576;2023-04-01T13:12:53;99349.56;;;15.84;75.53
18500;BME280;9379;52.134;11.576;2023-04-01T13:15:33;99356.97;;;15.82;74.35
18500;BME280;9379;52.134;11.576;2023-04-01T13:18:10;99353.25;;;15.76;76.09
18500;BME280;9379;52.134;11.576;2023-04-01T13:20:49;99364.66;;;15.57;76.66
18500;BME280;9379;52.134;11.576;2023-04-01T13:23:28;99364.41;;;15.80;77.09
18500;BME280;9379;52.134;11.576;2023-04-01T13:26:05;99365.75;;;15.62;75.74
18500;BME280;9379;52.134;11.576;2023-04-01T13:28:38;99374.34;;;15.58;76.25
18500;BME280;9379;52.134;11.576;2023-04-01T13:31:09;99362.19;;;15.90;77.46
18500;BME280;9379;52.134;11.576;2023-04-01T13:33:45;99375.41;;;15.98;78.62
18500;BME280;9379;52.134;11.576;2023-04-01T13:36:24;99375.31;;;15.78;76.42
18500;BME280;9379;52.134;11.576;2023-04-01T13:39:09;99382.72;;;15.76;80.17
18500;BME280;9379;52.134;11.576;2023-04-01T13:42:01;99386.28;;;15.55;79.30
18500;BME280;9379;52.134;11.576;2023-04-01T13:44:35;99386.88;;;15.23;80.49
18500;BME280;9379;52.134;11.576;2023-04-01T13:47:17;99398.97;;;15.40;80.66
18500;BME280;9379;52.134;11.576;2023-04-01T13:50:15;99387.66;;;15.44;80.63
18500;BME280;9379;52.134;11.576;2023-04-01T13:52:55;99383.53;;;15.14;78.55
18500;BME280;9379;52.134;11.576;2023-04-01T13:55:35;99400.84;;;15.46;80.98
18500;BME280;9379;52.134;11.576;2023-04-01T13:58:45;99412.34;;;14.91;94.30
18500;BME280;9379;52.134;11.576;2023-04-01T14:01:20;99417.66;;;14.63;97.24
18500;BME280;9379;52.134;11.576;2023-04-01T14:04:17;99399.91;;;14.40;98.87
18500;BME280;9379;52.134;11.576;2023-04-01T14:06:59;99413.22;;;13.68;100.00
18500;BME280;9379;52.134;11.576;2023-04-01T14:09:48;99416.22;;;13.94;100.00
18500;BME280;9379;52.134;11.576;2023-04-01T14:12:28;99424.97;;;13.88;100.00
18500;BME280;9379;52.134;11.576;2023-04-01T14:15:16;99424.31;;;13.86;100.00
18500;BME280;9379;52.134;11.576;2023-04-01T14:17:56;99430.38;;;13.36;100.00
18500;BME280;9379;52.134;11.576;2023-04-01T14:20:40;99434.38;;;13.69;100.00
18500;BME280;9379;52.134;11.576;2023-04-01T14:23:30;99445.78;;;13.63;100.00
18500;BME280;9379;52.134;11.576;2023-04-01T14:26:23;99437.66;;;13.42;100.00
18500;BME280;9379;52.134;11.576;2023-04-01T14:29:06;99446.78;;;13.62;100.00
18500;BME280;9379;52.134;11.576;2023-04-01T14:31:44;99459.81;;;13.42;100.00
18500;BME280;9379;52.134;11.576;2023-04-01T14:34:32;99457.91;;;12.91;100.00